createdAt,value
2022-12-09T00:00:14.305Z,51.82
2022-12-09T00:01:14.213Z,51.52
2022-12-09T00:02:14.395Z,51.72
2022-12-09T00:03:16.144Z,51.72
2022-12-09T00:04:14.414Z,51.52
2022-12-09T00:05:14.162Z,51.62
2022-12-09T00:06:14.033Z,52.12
2022-12-09T00:07:14.057Z,52.22
2022-12-09T00:08:14.315Z,52.61
2022-12-09T00:09:14.516Z,53.01
2022-12-09T00:10:13.975Z,52.51
2022-12-09T00:11:13.986Z,52.61
2022-12-09T00:12:14.253Z,52.72
2022-12-09T00:13:14.013Z,53.01
2022-12-09T00:14:14.149Z,53.01
2022-12-09T00:15:14.039Z,52.81
2022-12-09T00:16:14.094Z,53.11
2022-12-09T00:17:14.229Z,53.01
2022-12-09T00:18:14.067Z,53.21
2022-12-09T00:19:13.954Z,53.01
2022-12-09T00:20:14.235Z,53.44
2022-12-09T00:21:14.531Z,53.83
2022-12-09T00:22:13.926Z,53.93
2022-12-09T00:23:14.034Z,54.13
2022-12-09T00:24:13.874Z,54.13
2022-12-09T00:25:13.920Z,54.43
2022-12-09T00:26:14.430Z,54.43
2022-12-09T00:27:14.094Z,54.63
2022-12-09T00:28:13.884Z,54.63
2022-12-09T00:29:13.787Z,54.63
2022-12-09T00:30:14.046Z,54.53
2022-12-09T00:31:14.179Z,54.82
2022-12-09T00:32:14.084Z,54.72
2022-12-09T00:33:14.060Z,54.63
2022-12-09T00:34:13.749Z,54.33
2022-12-09T00:35:13.744Z,54.53
2022-12-09T00:36:13.966Z,54.72
2022-12-09T00:37:14.461Z,54.95
2022-12-09T00:38:14.017Z,55.15
2022-12-09T00:39:13.846Z,55.44
2022-12-09T00:40:13.907Z,55.55
2022-12-09T00:41:13.660Z,55.25
2022-12-09T00:42:13.680Z,55.15
2022-12-09T00:43:13.889Z,55.55
2022-12-09T00:44:13.633Z,55.44
2022-12-09T00:45:13.688Z,55.65
2022-12-09T00:46:13.932Z,55.74
2022-12-09T00:47:13.629Z,55.74
2022-12-09T00:48:13.609Z,55.97
2022-12-09T00:49:13.831Z,56.27
2022-12-09T00:50:13.726Z,56.27
2022-12-09T00:51:13.585Z,56.07
2022-12-09T00:52:14.538Z,56.17
2022-12-09T00:53:13.681Z,56.17
2022-12-09T00:54:13.744Z,55.97
2022-12-09T00:55:13.848Z,55.97
2022-12-09T00:56:14.580Z,56.17
2022-12-09T00:57:13.628Z,56.07
2022-12-09T00:58:13.945Z,56.37
2022-12-09T00:59:13.491Z,56.47
2022-12-09T01:00:13.772Z,56.67
2022-12-09T01:01:13.562Z,56.57
2022-12-09T01:02:13.720Z,56.67
2022-12-09T01:03:13.656Z,56.77
2022-12-09T01:04:13.379Z,56.77
2022-12-09T01:05:13.535Z,56.96
2022-12-09T01:06:13.358Z,57.06
2022-12-09T01:07:13.400Z,57.26
2022-12-09T01:08:13.596Z,57.06
2022-12-09T01:09:13.440Z,57.17
2022-12-09T01:10:13.291Z,56.87
2022-12-09T01:11:13.465Z,57.06
2022-12-09T01:12:13.371Z,57.26
2022-12-09T01:13:13.317Z,57.17
2022-12-09T01:14:13.325Z,57.46
2022-12-09T01:15:13.296Z,57.46
2022-12-09T01:16:13.354Z,57.56
2022-12-09T01:17:13.577Z,57.66
2022-12-09T01:18:13.537Z,57.99
2022-12-09T01:19:13.666Z,58.09
2022-12-09T01:20:13.264Z,58.09
2022-12-09T01:21:13.440Z,58.28
2022-12-09T01:22:13.354Z,58.28
2022-12-09T01:23:13.251Z,58.28
2022-12-09T01:24:13.165Z,58.39
2022-12-09T01:25:13.454Z,58.58
2022-12-09T01:26:13.367Z,58.78
2022-12-09T01:27:13.193Z,57.89
2022-12-09T01:28:13.165Z,58.18
2022-12-09T01:29:13.241Z,58.09
2022-12-09T01:30:13.371Z,58.39
2022-12-09T01:31:13.266Z,58.39
2022-12-09T01:32:13.086Z,58.28
2022-12-09T01:33:13.306Z,58.69
2022-12-09T01:34:13.389Z,58.88
2022-12-09T01:35:13.377Z,58.69
2022-12-09T01:36:13.051Z,58.69
2022-12-09T01:37:13.016Z,59.08
2022-12-09T01:38:13.102Z,59.08
2022-12-09T01:39:13.238Z,58.78
2022-12-09T01:40:13.165Z,58.88
2022-12-09T01:41:13.354Z,58.69
2022-12-09T01:42:13.237Z,59.08
2022-12-09T01:43:12.917Z,59.08
2022-12-09T01:44:13.156Z,59.08
2022-12-09T01:45:13.038Z,59.38
2022-12-09T01:46:13.162Z,59.41
2022-12-09T01:47:13.025Z,59.41
2022-12-09T01:48:12.985Z,59.21
2022-12-09T01:49:13.161Z,58.81
2022-12-09T01:50:13.203Z,59.01
2022-12-09T01:51:13.011Z,58.81
2022-12-09T01:52:13.070Z,59.31
2022-12-09T01:53:12.844Z,59.01
2022-12-09T01:54:12.876Z,59.31
2022-12-09T01:55:12.920Z,59.61
2022-12-09T01:56:12.828Z,59.81
2022-12-09T01:57:13.130Z,60.30
2022-12-09T01:58:12.881Z,60.40
2022-12-09T01:59:12.913Z,60.50
2022-12-09T02:00:13.245Z,60.70
2022-12-09T02:01:12.820Z,60.50
2022-12-09T02:02:12.889Z,60.50
2022-12-09T02:03:12.995Z,60.40
2022-12-09T02:04:13.050Z,60.50
2022-12-09T02:05:13.147Z,60.40
2022-12-09T02:06:12.821Z,60.80
2022-12-09T02:07:12.881Z,60.93
2022-12-09T02:08:12.710Z,60.93
2022-12-09T02:09:12.770Z,61.33
2022-12-09T02:10:12.993Z,61.23
2022-12-09T02:11:12.686Z,61.13
2022-12-09T02:12:13.011Z,61.03
2022-12-09T02:13:12.842Z,61.33
2022-12-09T02:14:12.948Z,61.13
2022-12-09T02:15:12.909Z,61.23
2022-12-09T02:16:12.829Z,61.13
2022-12-09T02:17:12.961Z,60.93
2022-12-09T02:18:12.652Z,61.33
2022-12-09T02:19:12.598Z,61.03
2022-12-09T02:20:13.274Z,61.13
2022-12-09T02:21:12.572Z,61.13
2022-12-09T02:22:12.690Z,61.13
2022-12-09T02:23:12.832Z,61.03
2022-12-09T02:24:12.936Z,60.33
2022-12-09T02:25:12.698Z,60.03
2022-12-09T02:26:12.592Z,59.70
2022-12-09T02:27:12.739Z,59.51
2022-12-09T02:28:12.504Z,60.00
2022-12-09T02:29:12.548Z,60.21
2022-12-09T02:31:09.260Z,59.70
2022-12-09T02:32:10.443Z,59.51
2022-12-09T02:33:10.189Z,60.24
2022-12-09T02:34:10.031Z,60.03
2022-12-09T02:35:10.188Z,59.94
2022-12-09T02:36:10.437Z,59.64
2022-12-09T02:37:10.057Z,59.64
2022-12-09T02:38:10.010Z,59.74
2022-12-09T02:39:10.039Z,59.64
2022-12-09T02:40:10.217Z,59.64
2022-12-09T02:41:10.206Z,59.44
2022-12-09T02:42:10.149Z,59.34
2022-12-09T02:43:10.005Z,59.34
2022-12-09T02:44:10.166Z,59.34
2022-12-09T02:45:10.063Z,59.14
2022-12-09T02:46:10.576Z,59.74
2022-12-09T02:47:10.249Z,59.83
2022-12-09T02:48:10.265Z,60.03
2022-12-09T02:49:09.972Z,60.13
2022-12-09T02:50:10.261Z,59.94
2022-12-09T02:51:09.890Z,60.33
2022-12-09T02:52:09.861Z,60.43
2022-12-09T02:53:09.927Z,60.63
2022-12-09T02:54:10.008Z,60.93
2022-12-09T02:55:10.069Z,61.13
2022-12-09T02:56:09.820Z,59.94
2022-12-09T02:57:09.893Z,59.83
2022-12-09T02:58:09.947Z,59.83
2022-12-09T02:59:10.189Z,60.33
2022-12-09T03:00:10.350Z,59.94
2022-12-09T03:01:10.211Z,58.54
2022-12-09T03:02:09.874Z,58.27
2022-12-09T03:03:10.374Z,57.87
2022-12-09T03:04:09.961Z,57.77
2022-12-09T03:05:09.725Z,57.77
2022-12-09T03:06:09.719Z,57.77
2022-12-09T03:07:09.799Z,57.87
2022-12-09T03:08:09.813Z,58.07
2022-12-09T03:09:09.805Z,58.57
2022-12-09T03:10:10.211Z,58.47
2022-12-09T03:11:09.886Z,59.06
2022-12-09T03:12:09.843Z,58.87
2022-12-09T03:13:09.623Z,58.76
2022-12-09T03:14:09.749Z,57.97
2022-12-09T03:15:09.686Z,58.07
2022-12-09T03:16:09.951Z,58.17
2022-12-09T03:17:09.719Z,58.57
2022-12-09T03:18:10.133Z,58.57
2022-12-09T03:19:09.610Z,58.57
2022-12-09T03:20:11.367Z,58.67
2022-12-09T03:21:09.746Z,58.47
2022-12-09T03:22:09.775Z,58.67
2022-12-09T03:23:09.485Z,58.80
2022-12-09T03:24:09.698Z,59.00
2022-12-09T03:25:09.667Z,58.80
2022-12-09T03:26:09.456Z,58.59
2022-12-09T03:27:09.724Z,58.59
2022-12-09T03:28:09.465Z,58.40
2022-12-09T03:29:09.422Z,58.29
2022-12-09T03:30:10.068Z,58.10
2022-12-09T03:31:09.734Z,58.80
2022-12-09T03:32:09.480Z,58.40
2022-12-09T03:33:09.632Z,58.59
2022-12-09T03:34:09.737Z,58.89
2022-12-09T03:35:09.489Z,59.09
2022-12-09T03:36:09.604Z,59.00
2022-12-09T03:37:09.422Z,59.39
2022-12-09T03:38:09.662Z,59.72
2022-12-09T03:39:09.698Z,59.72
2022-12-09T03:40:13.848Z,59.52
2022-12-09T03:41:09.342Z,59.72
2022-12-09T03:42:09.639Z,59.62
2022-12-09T03:43:09.729Z,59.92
2022-12-09T03:44:09.695Z,60.12
2022-12-09T03:45:09.419Z,60.12
2022-12-09T03:46:09.641Z,60.32
2022-12-09T03:47:09.710Z,60.52
2022-12-09T03:48:09.286Z,60.62
2022-12-09T03:49:09.315Z,60.82
2022-12-09T03:50:09.516Z,61.02
2022-12-09T03:51:09.876Z,61.32
2022-12-09T03:52:09.346Z,61.22
2022-12-09T03:53:09.521Z,61.41
2022-12-09T03:54:09.375Z,61.74
2022-12-09T03:55:09.405Z,62.04
2022-12-09T03:56:10.244Z,61.65
2022-12-09T03:57:14.077Z,61.74
2022-12-09T03:58:09.252Z,62.04
2022-12-09T03:59:09.363Z,61.94
2022-12-09T04:00:09.693Z,62.24
2022-12-09T04:01:09.654Z,62.45
2022-12-09T04:02:09.616Z,62.54
2022-12-09T04:03:09.425Z,62.74
2022-12-09T04:04:09.249Z,62.64
2022-12-09T04:05:09.535Z,62.84
2022-12-09T04:06:09.499Z,63.14
2022-12-09T04:07:09.368Z,63.04
2022-12-09T04:08:09.046Z,63.14
2022-12-09T04:09:09.872Z,63.24
2022-12-09T04:10:09.565Z,63.47
2022-12-09T04:11:09.126Z,63.77
2022-12-09T04:12:09.028Z,64.14
2022-12-09T04:13:09.160Z,63.74
2022-12-09T04:14:15.067Z,63.47
2022-12-09T04:15:09.018Z,63.77
2022-12-09T04:16:09.016Z,63.77
2022-12-09T04:17:08.987Z,64.17
2022-12-09T04:18:09.232Z,64.07
2022-12-09T04:19:09.035Z,64.27
2022-12-09T04:20:09.450Z,64.17
2022-12-09T04:21:09.270Z,64.27
2022-12-09T04:22:09.035Z,64.37
2022-12-09T04:23:08.938Z,64.27
2022-12-09T04:24:08.921Z,64.17
2022-12-09T04:25:08.927Z,64.17
2022-12-09T04:26:09.104Z,64.67
2022-12-09T04:27:09.388Z,64.47
2022-12-09T04:28:08.963Z,64.07
2022-12-09T04:29:08.863Z,64.17
2022-12-09T04:30:09.239Z,64.27
2022-12-09T04:31:08.892Z,64.67
2022-12-09T04:32:08.866Z,64.77
2022-12-09T04:33:09.363Z,63.80
2022-12-09T04:34:09.872Z,63.50
2022-12-09T04:35:08.881Z,63.80
2022-12-09T04:36:08.839Z,63.70
2022-12-09T04:37:08.836Z,63.80
2022-12-09T04:38:08.984Z,64.10
2022-12-09T04:39:09.181Z,64.30
2022-12-09T04:40:09.211Z,64.60
2022-12-09T04:41:08.749Z,64.40
2022-12-09T04:42:08.742Z,64.40
2022-12-09T04:43:08.641Z,64.50
2022-12-09T04:44:08.645Z,64.50
2022-12-09T04:45:09.122Z,64.50
2022-12-09T04:46:08.946Z,64.50
2022-12-09T04:47:08.836Z,64.50
2022-12-09T04:48:08.722Z,64.50
2022-12-09T04:49:08.920Z,64.50
2022-12-09T04:50:09.196Z,64.70
2022-12-09T04:51:08.653Z,64.80
2022-12-09T04:52:08.703Z,64.50
2022-12-09T04:53:08.513Z,64.40
2022-12-09T04:54:08.957Z,64.60
2022-12-09T04:55:08.517Z,65.00
2022-12-09T04:56:08.664Z,65.00
2022-12-09T04:57:09.102Z,64.90
2022-12-09T04:58:09.637Z,64.80
2022-12-09T04:59:08.635Z,64.90
2022-12-09T05:00:08.970Z,65.20
2022-12-09T05:01:09.017Z,65.20
2022-12-09T05:02:08.589Z,65.30
2022-12-09T05:03:09.410Z,65.40
2022-12-09T05:04:08.840Z,65.50
2022-12-09T05:05:08.921Z,65.60
2022-12-09T05:06:09.610Z,65.70
2022-12-09T05:07:08.515Z,65.80
2022-12-09T05:08:08.911Z,65.60
2022-12-09T05:09:08.605Z,65.30
2022-12-09T05:10:09.188Z,65.20
2022-12-09T05:11:08.586Z,65.30
2022-12-09T05:12:08.431Z,65.40
2022-12-09T05:13:08.360Z,65.60
2022-12-09T05:14:08.489Z,65.40
2022-12-09T05:15:08.519Z,65.40
2022-12-09T05:16:15.383Z,65.40
2022-12-09T05:17:08.742Z,65.40
2022-12-09T05:18:08.361Z,65.30
2022-12-09T05:19:08.495Z,65.10
2022-12-09T05:20:08.876Z,65.40
2022-12-09T05:21:08.665Z,65.40
2022-12-09T05:22:08.551Z,65.00
2022-12-09T05:23:09.920Z,63.40
2022-12-09T05:24:08.315Z,63.30
2022-12-09T05:25:08.531Z,63.70
2022-12-09T05:26:08.244Z,63.90
2022-12-09T05:27:08.260Z,63.90
2022-12-09T05:28:08.467Z,63.80
2022-12-09T05:29:08.239Z,63.90
2022-12-09T05:30:08.626Z,64.10
2022-12-09T05:31:08.576Z,64.50
2022-12-09T05:32:08.499Z,64.30
2022-12-09T05:33:08.412Z,64.10
2022-12-09T05:34:08.502Z,63.70
2022-12-09T05:35:08.184Z,63.90
2022-12-09T05:36:08.286Z,63.70
2022-12-09T05:37:08.296Z,63.70
2022-12-09T05:38:08.478Z,63.90
2022-12-09T05:39:08.386Z,64.10
2022-12-09T05:40:09.398Z,64.20
2022-12-09T05:41:08.050Z,63.60
2022-12-09T05:42:08.304Z,63.60
2022-12-09T05:43:08.355Z,63.60
2022-12-09T05:44:08.284Z,63.83
2022-12-09T05:45:08.314Z,64.23
2022-12-09T05:46:08.159Z,64.43
2022-12-09T05:47:08.162Z,64.50
2022-12-09T05:48:08.346Z,64.33
2022-12-09T05:49:08.101Z,64.33
2022-12-09T05:50:08.882Z,64.23
2022-12-09T05:51:08.139Z,64.13
2022-12-09T05:52:08.351Z,64.13
2022-12-09T05:53:08.018Z,64.23
2022-12-09T05:54:08.235Z,64.13
2022-12-09T05:55:08.083Z,63.83
2022-12-09T05:56:08.380Z,64.03
2022-12-09T05:57:08.200Z,64.06
2022-12-09T05:58:08.060Z,63.76
2022-12-09T05:59:08.244Z,63.96
2022-12-09T06:00:08.210Z,63.86
2022-12-09T06:01:07.976Z,64.16
2022-12-09T06:02:10.179Z,64.96
2022-12-09T06:03:08.053Z,64.56
2022-12-09T06:04:08.291Z,64.16
2022-12-09T06:05:08.175Z,64.03
2022-12-09T06:06:08.370Z,64.13
2022-12-09T06:07:07.976Z,63.83
2022-12-09T06:08:08.028Z,63.33
2022-12-09T06:09:07.896Z,63.33
2022-12-09T06:10:08.506Z,63.63
2022-12-09T06:11:07.971Z,63.63
2022-12-09T06:12:07.866Z,63.93
2022-12-09T06:13:07.883Z,63.83
2022-12-09T06:14:07.834Z,63.33
2022-12-09T06:15:10.559Z,63.23
2022-12-09T06:16:07.929Z,63.26
2022-12-09T06:17:08.226Z,63.46
2022-12-09T06:18:08.118Z,63.86
2022-12-09T06:19:08.111Z,64.26
2022-12-09T06:20:08.315Z,64.16
2022-12-09T06:21:08.055Z,63.86
2022-12-09T06:22:07.817Z,63.96
2022-12-09T06:23:07.925Z,64.36
2022-12-09T06:24:07.959Z,64.56
2022-12-09T06:25:07.741Z,64.66
2022-12-09T06:26:07.652Z,64.26
2022-12-09T06:27:08.101Z,64.36
2022-12-09T06:28:08.009Z,64.96
2022-12-09T06:29:07.662Z,65.46
2022-12-09T06:30:07.771Z,65.56
2022-12-09T06:31:07.552Z,65.46
2022-12-09T06:32:07.862Z,65.06
2022-12-09T06:33:29.145Z,64.96
2022-12-09T06:34:07.714Z,64.96
2022-12-09T06:35:08.342Z,65.06
2022-12-09T06:36:07.873Z,65.46
2022-12-09T06:37:07.461Z,65.56
2022-12-09T06:38:07.513Z,65.56
2022-12-09T06:39:10.423Z,65.26
2022-12-09T06:40:07.428Z,65.16
2022-12-09T06:41:07.614Z,65.36
2022-12-09T06:42:07.442Z,65.36
2022-12-09T06:43:07.526Z,65.36
2022-12-09T06:44:07.545Z,65.56
2022-12-09T06:45:08.064Z,65.26
2022-12-09T06:46:07.716Z,65.26
2022-12-09T06:47:07.660Z,65.46
2022-12-09T06:48:07.728Z,65.56
2022-12-09T06:49:07.508Z,65.56
2022-12-09T06:50:08.154Z,65.66
2022-12-09T06:51:07.490Z,65.76
2022-12-09T06:52:07.495Z,65.96
2022-12-09T06:53:07.292Z,65.96
2022-12-09T06:54:07.352Z,65.96
2022-12-09T06:55:07.835Z,65.96
2022-12-09T06:56:11.777Z,65.39
2022-12-09T06:57:07.931Z,65.29
2022-12-09T06:58:07.651Z,65.39
2022-12-09T06:59:07.260Z,65.59
2022-12-09T07:00:07.192Z,65.49
2022-12-09T07:01:07.270Z,65.59
2022-12-09T07:02:07.364Z,65.49
2022-12-09T07:03:07.653Z,65.69
2022-12-09T07:04:07.427Z,65.86
2022-12-09T07:05:08.245Z,66.06
2022-12-09T07:06:07.395Z,66.16
2022-12-09T07:07:07.327Z,66.16
2022-12-09T07:08:07.703Z,65.96
2022-12-09T07:09:07.389Z,65.86
2022-12-09T07:10:07.806Z,65.96
2022-12-09T07:11:07.413Z,65.96
2022-12-09T07:12:07.380Z,66.06
2022-12-09T07:13:07.277Z,66.16
2022-12-09T07:14:07.489Z,66.26
2022-12-09T07:15:07.664Z,66.46
2022-12-09T07:16:07.184Z,66.59
2022-12-09T07:17:07.128Z,66.69
2022-12-09T07:18:07.130Z,66.99
2022-12-09T07:19:07.203Z,67.19
2022-12-09T07:20:08.238Z,67.19
2022-12-09T07:21:07.478Z,67.19
2022-12-09T07:22:06.978Z,67.29
2022-12-09T07:23:07.063Z,67.29
2022-12-09T07:24:07.115Z,67.29
2022-12-09T07:25:07.848Z,67.19
2022-12-09T07:26:07.386Z,67.40
2022-12-09T07:27:10.768Z,67.29
2022-12-09T07:28:07.953Z,67.49
2022-12-09T07:29:07.291Z,67.49
2022-12-09T07:30:07.044Z,67.40
2022-12-09T07:31:07.147Z,67.40
2022-12-09T07:32:07.077Z,67.19
2022-12-09T07:33:07.135Z,67.19
2022-12-09T07:34:07.204Z,67.19
2022-12-09T07:35:07.616Z,67.19
2022-12-09T07:36:07.168Z,67.19
2022-12-09T07:37:07.154Z,67.09
2022-12-09T07:38:06.869Z,67.49
2022-12-09T07:39:06.966Z,67.59
2022-12-09T07:40:06.831Z,67.69
2022-12-09T07:41:06.979Z,67.49
2022-12-09T07:42:07.127Z,67.59
2022-12-09T07:43:06.951Z,67.49
2022-12-09T07:44:06.850Z,67.59
2022-12-09T07:45:07.700Z,67.89
2022-12-09T07:46:06.959Z,67.89
2022-12-09T07:47:07.049Z,67.89
2022-12-09T07:48:07.140Z,67.89
2022-12-09T07:49:07.361Z,67.79
2022-12-09T07:50:07.583Z,67.69
2022-12-09T07:51:06.822Z,67.79
2022-12-09T07:52:07.038Z,68.09
2022-12-09T07:53:06.870Z,68.19
2022-12-09T07:54:06.853Z,68.19
2022-12-09T07:55:07.311Z,68.19
2022-12-09T07:56:06.653Z,67.99
2022-12-09T07:57:06.816Z,68.19
2022-12-09T07:58:06.658Z,68.29
2022-12-09T07:59:06.609Z,68.32
2022-12-09T08:00:06.905Z,68.32
2022-12-09T08:01:06.983Z,68.32
2022-12-09T08:02:07.083Z,68.32
2022-12-09T08:03:06.684Z,68.23
2022-12-09T08:04:07.195Z,68.32
2022-12-09T08:05:06.999Z,67.82
2022-12-09T08:06:06.773Z,67.93
2022-12-09T08:07:06.731Z,68.43
2022-12-09T08:08:06.849Z,68.62
2022-12-09T08:09:07.049Z,68.73
2022-12-09T08:10:06.899Z,68.82
2022-12-09T08:11:06.768Z,68.82
2022-12-09T08:12:06.886Z,68.73
2022-12-09T08:13:06.758Z,68.52
2022-12-09T08:14:11.381Z,68.52
2022-12-09T08:15:07.012Z,68.52
2022-12-09T08:16:07.049Z,67.93
2022-12-09T08:17:06.550Z,67.82
2022-12-09T08:18:06.501Z,68.43
2022-12-09T08:19:06.496Z,68.43
2022-12-09T08:20:06.834Z,68.32
2022-12-09T08:21:06.798Z,68.23
2022-12-09T08:22:06.364Z,68.43
2022-12-09T08:23:06.407Z,68.73
2022-12-09T08:24:06.427Z,68.82
2022-12-09T08:25:06.868Z,68.82
2022-12-09T08:26:06.420Z,69.02
2022-12-09T08:27:06.747Z,69.32
2022-12-09T08:28:06.447Z,69.43
2022-12-09T08:29:06.633Z,69.93
2022-12-09T08:30:07.455Z,69.96
2022-12-09T08:31:06.403Z,69.66
2022-12-09T08:32:06.323Z,69.76
2022-12-09T08:33:06.570Z,69.76
2022-12-09T08:34:06.399Z,69.99
2022-12-09T08:35:06.553Z,70.39
2022-12-09T08:36:06.548Z,71.00
2022-12-09T08:37:06.224Z,71.00
2022-12-09T08:38:06.585Z,70.79
2022-12-09T08:39:06.305Z,70.89
2022-12-09T08:40:06.697Z,70.89
2022-12-09T08:41:06.186Z,71.30
2022-12-09T08:42:06.205Z,71.19
2022-12-09T08:43:06.350Z,71.00
2022-12-09T08:44:07.191Z,70.86
2022-12-09T08:45:06.228Z,71.26
2022-12-09T08:46:06.326Z,70.46
2022-12-09T08:47:06.157Z,70.46
2022-12-09T08:48:06.297Z,70.26
2022-12-09T08:49:06.374Z,70.66
2022-12-09T08:50:06.807Z,70.46
2022-12-09T08:51:06.471Z,69.66
2022-12-09T08:52:06.492Z,69.06
2022-12-09T08:53:06.050Z,68.96
2022-12-09T08:54:06.267Z,69.16
2022-12-09T08:55:06.298Z,69.16
2022-12-09T08:56:06.390Z,69.06
2022-12-09T08:57:06.423Z,68.86
2022-12-09T08:58:06.397Z,68.86
2022-12-09T08:59:06.116Z,69.06
2022-12-09T09:00:07.459Z,68.96
2022-12-09T09:01:06.495Z,68.96
2022-12-09T09:02:06.129Z,68.76
2022-12-09T09:03:07.938Z,68.66
2022-12-09T09:04:06.394Z,68.55
2022-12-09T09:05:06.399Z,68.26
2022-12-09T09:06:10.481Z,68.02
2022-12-09T09:07:06.414Z,67.63
2022-12-09T09:08:06.034Z,67.43
2022-12-09T09:09:06.036Z,67.02
2022-12-09T09:10:06.665Z,67.02
2022-12-09T09:11:06.189Z,67.13
2022-12-09T09:12:06.117Z,67.32
2022-12-09T09:13:05.843Z,67.93
2022-12-09T09:14:05.983Z,67.76
2022-12-09T09:15:06.336Z,67.66
2022-12-09T09:16:05.927Z,67.25
2022-12-09T09:17:06.713Z,67.46
2022-12-09T09:18:06.215Z,67.55
2022-12-09T09:19:05.928Z,67.66
2022-12-09T09:20:06.240Z,67.76
2022-12-09T09:21:05.727Z,67.76
2022-12-09T09:22:06.234Z,67.66
2022-12-09T09:23:06.018Z,67.76
2022-12-09T09:24:05.983Z,68.05
2022-12-09T09:25:06.686Z,67.96
2022-12-09T09:26:05.788Z,67.86
2022-12-09T09:27:05.622Z,67.86
2022-12-09T09:28:05.700Z,67.96
2022-12-09T09:29:06.020Z,67.96
2022-12-09T09:30:06.226Z,67.96
2022-12-09T09:31:05.743Z,67.76
2022-12-09T09:32:05.792Z,67.96
2022-12-09T09:33:06.138Z,67.86
2022-12-09T09:34:05.706Z,68.05
2022-12-09T09:35:05.837Z,67.63
2022-12-09T09:36:09.856Z,67.82
2022-12-09T09:37:05.614Z,67.82
2022-12-09T09:38:05.629Z,67.93
2022-12-09T09:39:06.052Z,68.32
2022-12-09T09:40:06.800Z,68.23
2022-12-09T09:41:05.768Z,67.29
2022-12-09T09:42:08.588Z,67.19
2022-12-09T09:43:06.483Z,66.89
2022-12-09T09:44:05.951Z,66.99
2022-12-09T09:45:05.657Z,66.79
2022-12-09T09:46:06.163Z,66.59
2022-12-09T09:47:05.620Z,66.69
2022-12-09T09:48:05.735Z,66.09
2022-12-09T09:49:06.072Z,66.49
2022-12-09T09:50:06.101Z,66.49
2022-12-09T09:51:05.824Z,66.89
2022-12-09T09:52:05.972Z,67.06
2022-12-09T09:53:12.781Z,66.36
2022-12-09T09:54:09.040Z,66.16
2022-12-09T09:55:06.199Z,66.06
2022-12-09T09:56:05.779Z,65.86
2022-12-09T09:57:06.366Z,65.73
2022-12-09T09:58:05.591Z,65.93
2022-12-09T09:59:05.914Z,65.83
2022-12-09T10:00:09.785Z,64.63
2022-12-09T10:01:05.621Z,64.43
2022-12-09T10:02:05.679Z,65.23
2022-12-09T10:03:06.378Z,65.73
2022-12-09T10:04:06.438Z,65.53
2022-12-09T10:05:05.869Z,64.83
2022-12-09T10:06:05.942Z,64.53
2022-12-09T10:07:08.027Z,64.13
2022-12-09T10:08:05.496Z,64.13
2022-12-09T10:09:06.654Z,63.93
2022-12-09T10:10:07.222Z,64.13
2022-12-09T10:11:05.923Z,63.83
2022-12-09T10:12:05.599Z,63.40
2022-12-09T10:13:08.336Z,63.20
2022-12-09T10:14:05.820Z,62.50
2022-12-09T10:15:05.574Z,62.60
2022-12-09T10:16:05.724Z,61.71
2022-12-09T10:17:05.628Z,61.90
2022-12-09T10:18:05.405Z,62.30
2022-12-09T10:19:09.124Z,61.21
2022-12-09T10:20:05.756Z,61.71
2022-12-09T10:21:05.902Z,61.71
2022-12-09T10:22:05.781Z,62.07
2022-12-09T10:23:05.429Z,61.68
2022-12-09T10:24:05.530Z,61.87
2022-12-09T10:25:05.553Z,61.98
2022-12-09T10:26:05.252Z,61.68
2022-12-09T10:27:05.550Z,61.55
2022-12-09T10:28:05.147Z,62.15
2022-12-09T10:29:05.203Z,61.94
2022-12-09T10:30:05.732Z,62.15
2022-12-09T10:31:05.348Z,61.94
2022-12-09T10:32:05.155Z,61.65
2022-12-09T10:33:05.673Z,61.32
2022-12-09T10:34:05.547Z,61.52
2022-12-09T10:35:05.288Z,61.11
2022-12-09T10:36:05.051Z,60.42
2022-12-09T10:37:05.162Z,60.72
2022-12-09T10:38:05.034Z,61.02
2022-12-09T10:39:05.470Z,60.22
2022-12-09T10:40:05.036Z,60.42
2022-12-09T10:41:05.119Z,59.30
2022-12-09T10:42:04.850Z,59.39
2022-12-09T10:43:05.026Z,59.89
2022-12-09T10:44:05.247Z,59.59
2022-12-09T10:45:05.464Z,59.59
2022-12-09T10:46:21.509Z,59.79
2022-12-09T10:47:05.276Z,59.99
2022-12-09T10:48:04.987Z,58.76
2022-12-09T10:49:04.959Z,58.47
2022-12-09T10:50:05.213Z,58.37
2022-12-09T10:51:05.070Z,58.27
2022-12-09T10:52:05.505Z,58.47
2022-12-09T10:53:04.766Z,58.34
2022-12-09T10:54:05.070Z,58.54
2022-12-09T10:55:05.165Z,57.64
2022-12-09T10:56:05.004Z,57.24
2022-12-09T10:57:05.073Z,57.64
2022-12-09T10:58:05.212Z,57.64
2022-12-09T10:59:04.915Z,56.75
2022-12-09T11:00:05.102Z,57.52
2022-12-09T11:01:05.219Z,57.71
2022-12-09T11:02:04.796Z,57.22
2022-12-09T11:03:05.546Z,57.92
2022-12-09T11:04:04.950Z,57.89
2022-12-09T11:05:04.986Z,57.99
2022-12-09T11:06:05.336Z,57.29
2022-12-09T11:07:05.429Z,57.46
2022-12-09T11:08:05.023Z,56.77
2022-12-09T11:09:05.311Z,56.07
2022-12-09T11:10:05.513Z,55.08
2022-12-09T11:11:05.155Z,55.77
2022-12-09T11:12:04.806Z,56.27
2022-12-09T11:13:04.634Z,56.14
2022-12-09T11:14:04.948Z,55.94
2022-12-09T11:15:04.579Z,55.25
2022-12-09T11:16:04.953Z,54.95
2022-12-09T11:17:04.852Z,53.46
2022-12-09T11:18:05.088Z,53.36
2022-12-09T11:19:04.584Z,52.86
2022-12-09T11:20:04.898Z,53.66
2022-12-09T11:21:04.916Z,53.96
2022-12-09T11:22:04.738Z,54.35
2022-12-09T11:23:04.601Z,53.53
2022-12-09T11:24:04.868Z,53.23
2022-12-09T11:25:04.561Z,53.33
2022-12-09T11:26:05.249Z,53.01
2022-12-09T11:27:04.537Z,52.42
2022-12-09T11:28:04.741Z,53.51
2022-12-09T11:29:04.701Z,52.31
2022-12-09T11:30:09.540Z,52.72
2022-12-09T11:31:28.487Z,52.12
2022-12-09T11:32:04.795Z,51.92
2022-12-09T11:33:04.421Z,53.01
2022-12-09T11:34:04.577Z,52.89
2022-12-09T11:35:04.961Z,52.59
2022-12-09T11:36:04.765Z,51.60
2022-12-09T11:37:04.284Z,51.50
2022-12-09T11:38:04.279Z,52.09
2022-12-09T11:39:04.282Z,52.49
2022-12-09T11:40:04.546Z,52.89
2022-12-09T11:41:04.322Z,52.49
2022-12-09T11:42:04.867Z,51.67
2022-12-09T11:43:04.258Z,53.96
2022-12-09T11:44:04.164Z,51.67
2022-12-09T11:45:04.279Z,50.88
2022-12-09T11:46:04.128Z,52.07
2022-12-09T11:47:04.263Z,54.22
2022-12-09T11:49:04.206Z,51.65
2022-12-09T11:50:04.236Z,50.23
2022-12-09T11:51:04.053Z,51.52
2022-12-09T11:52:04.187Z,52.22
2022-12-09T11:53:04.181Z,53.67
2022-12-09T11:54:04.136Z,53.28
2022-12-09T11:55:04.099Z,50.98
2022-12-09T11:56:04.113Z,49.59
2022-12-09T11:57:04.101Z,48.60
2022-12-09T11:58:04.012Z,49.29
2022-12-09T11:59:04.025Z,49.99
2022-12-09T12:00:04.255Z,49.40
2022-12-09T12:01:04.028Z,50.18
2022-12-09T12:02:04.101Z,50.68
2022-12-09T12:03:04.060Z,48.21
2022-12-09T12:04:04.069Z,47.99
2022-12-09T12:05:04.007Z,46.89
2022-12-09T12:06:03.974Z,48.48
2022-12-09T12:07:03.963Z,48.77
2022-12-09T12:08:04.067Z,48.21
2022-12-09T12:09:04.044Z,49.40
2022-12-09T12:10:04.173Z,49.29
2022-12-09T12:11:03.903Z,51.28
2022-12-09T12:12:03.918Z,52.07
2022-12-09T12:13:04.526Z,51.75
2022-12-09T12:14:03.929Z,51.94
2022-12-09T12:15:03.835Z,51.42
2022-12-09T12:16:03.833Z,52.12
2022-12-09T12:17:04.015Z,52.19
2022-12-09T12:18:03.882Z,50.71
2022-12-09T12:19:04.504Z,49.79
2022-12-09T12:20:04.022Z,50.38
2022-12-09T12:21:03.872Z,49.79
2022-12-09T12:22:03.777Z,50.56
2022-12-09T12:23:03.816Z,49.27
2022-12-09T12:24:03.772Z,47.89
2022-12-09T12:25:03.846Z,47.99
2022-12-09T12:26:03.818Z,47.40
2022-12-09T12:27:03.741Z,46.91
2022-12-09T12:28:03.715Z,45.03
2022-12-09T12:29:07.264Z,45.05
2022-12-09T12:30:03.835Z,45.86
2022-12-09T12:31:03.733Z,45.96
2022-12-09T12:32:03.650Z,46.16
2022-12-09T12:33:53.037Z,47.44
2022-12-09T12:34:24.012Z,46.16
2022-12-09T12:35:03.774Z,46.06
2022-12-09T12:36:03.657Z,45.96
2022-12-09T12:37:03.794Z,47.74
2022-12-09T12:38:03.628Z,48.02
2022-12-09T12:39:03.637Z,48.51
2022-12-09T12:40:03.837Z,46.63
2022-12-09T12:41:03.587Z,45.64
2022-12-09T12:42:03.696Z,45.54
2022-12-09T12:43:03.535Z,46.73
2022-12-09T12:44:03.569Z,47.91
2022-12-09T12:45:03.621Z,48.19
2022-12-09T12:46:03.542Z,46.29
2022-12-09T12:47:03.657Z,48.07
2022-12-09T12:48:03.638Z,48.36
2022-12-09T12:49:03.547Z,47.35
2022-12-09T12:50:03.575Z,45.01
2022-12-09T12:51:03.865Z,45.70
2022-12-09T12:52:03.489Z,48.07
2022-12-09T12:53:03.466Z,47.94
2022-12-09T12:54:03.376Z,47.55